createdAt,value
2018-12-16T00:00:20.228Z,0
2018-12-16T00:01:00.623Z,0
2018-12-16T00:01:40.927Z,0
2018-12-16T00:02:21.721Z,0
2018-12-16T00:03:02.133Z,0
2018-12-16T00:03:42.505Z,0
2018-12-16T00:06:08.644Z,0
2018-12-16T00:07:00.326Z,0
2018-12-16T00:07:54.038Z,0
2018-12-16T00:10:44.372Z,0
2018-12-16T00:11:37.876Z,0
2018-12-16T00:12:28.979Z,0
2018-12-16T00:13:21.580Z,0
2018-12-16T00:14:14.897Z,0
2018-12-16T00:15:07.307Z,0
2018-12-16T00:15:59.464Z,0
2018-12-16T00:16:51.723Z,0
2018-12-16T00:17:45.042Z,0
2018-12-16T00:18:38.088Z,0
2018-12-16T00:19:31.159Z,0
2018-12-16T00:20:23.490Z,0
2018-12-16T00:21:16.241Z,0
2018-12-16T00:22:09.196Z,0
2018-12-16T00:23:01.389Z,0
2018-12-16T00:23:50.683Z,0
2018-12-16T00:24:30.978Z,0
2018-12-16T00:25:11.335Z,0
2018-12-16T00:25:52.509Z,0
2018-12-16T00:26:33.885Z,0
2018-12-16T00:27:14.332Z,0
2018-12-16T00:27:54.754Z,0
2018-12-16T00:28:35.198Z,0
2018-12-16T00:29:16.186Z,0
2018-12-16T00:29:56.620Z,0
2018-12-16T00:30:37.062Z,0
2018-12-16T00:31:17.403Z,0
2018-12-16T00:31:58.061Z,0
2018-12-16T00:32:38.468Z,0
2018-12-16T00:33:18.792Z,0
2018-12-16T00:33:59.237Z,0
2018-12-16T00:34:39.607Z,0
2018-12-16T00:35:20.103Z,0
2018-12-16T00:36:00.458Z,0
2018-12-16T00:36:40.876Z,0
2018-12-16T00:37:21.178Z,0
2018-12-16T00:38:02.080Z,0
2018-12-16T00:38:42.243Z,0
2018-12-16T00:39:22.709Z,0
2018-12-16T00:40:03.123Z,0
2018-12-16T00:40:43.746Z,0
2018-12-16T00:41:23.807Z,0
2018-12-16T00:42:04.139Z,0
2018-12-16T00:42:45.234Z,0
2018-12-16T00:43:26.162Z,0
2018-12-16T00:44:07.249Z,0
2018-12-16T00:44:47.450Z,0
2018-12-16T00:45:27.885Z,0
2018-12-16T00:46:08.964Z,0
2018-12-16T00:46:49.563Z,0
2018-12-16T00:47:29.826Z,0
2018-12-16T00:48:10.158Z,0
2018-12-16T00:48:50.764Z,0
2018-12-16T00:49:31.172Z,0
2018-12-16T00:50:11.592Z,0
2018-12-16T00:50:51.982Z,0
2018-12-16T00:51:32.538Z,0
2018-12-16T00:52:14.223Z,0
2018-12-16T00:52:54.571Z,0
2018-12-16T00:53:35.065Z,0
2018-12-16T00:54:15.414Z,0
2018-12-16T00:54:56.158Z,0
2018-12-16T00:55:36.304Z,0
2018-12-16T00:56:18.747Z,0
2018-12-16T00:56:59.132Z,0
2018-12-16T00:57:40.142Z,0
2018-12-16T00:58:21.686Z,0
2018-12-16T00:59:03.361Z,0
2018-12-16T00:59:43.619Z,0
2018-12-16T01:00:24.038Z,0
2018-12-16T01:01:04.465Z,0
2018-12-16T01:01:45.461Z,0
2018-12-16T01:02:26.909Z,0
2018-12-16T01:03:07.367Z,0
2018-12-16T01:03:47.753Z,0
2018-12-16T01:04:28.151Z,0
2018-12-16T01:05:08.529Z,0
2018-12-16T01:05:48.990Z,0
2018-12-16T01:06:29.369Z,0
2018-12-16T01:07:10.611Z,0
2018-12-16T01:07:51.575Z,0
2018-12-16T01:08:32.500Z,0
2018-12-16T01:09:13.185Z,0
2018-12-16T01:09:53.698Z,0
2018-12-16T01:10:34.544Z,0
2018-12-16T01:11:15.775Z,0
2018-12-16T01:11:56.186Z,0
2018-12-16T01:12:39.147Z,0
2018-12-16T01:13:19.554Z,0
2018-12-16T01:14:00.363Z,0
2018-12-16T01:14:41.347Z,0
2018-12-16T01:15:21.854Z,0
2018-12-16T01:16:02.209Z,0
2018-12-16T01:16:42.825Z,0
2018-12-16T01:17:23.332Z,0
2018-12-16T01:18:03.733Z,0
2018-12-16T01:18:44.255Z,0
2018-12-16T01:19:25.311Z,0
2018-12-16T01:20:05.956Z,0
2018-12-16T01:20:46.441Z,0
2018-12-16T01:21:26.845Z,0
2018-12-16T01:22:08.115Z,0
2018-12-16T01:22:48.704Z,0
2018-12-16T01:23:29.311Z,0
2018-12-16T01:24:10.801Z,0
2018-12-16T01:24:51.161Z,0
2018-12-16T01:25:31.937Z,0
2018-12-16T01:26:12.047Z,0
2018-12-16T01:26:53.252Z,0
2018-12-16T01:27:33.769Z,0
2018-12-16T01:28:14.578Z,0
2018-12-16T01:28:56.058Z,0
2018-12-16T01:29:36.540Z,0
2018-12-16T01:30:16.956Z,0
2018-12-16T01:30:57.319Z,0
2018-12-16T01:31:37.710Z,0
2018-12-16T01:32:18.161Z,0
2018-12-16T01:32:58.867Z,0
2018-12-16T01:33:39.435Z,0
2018-12-16T01:34:20.992Z,0
2018-12-16T01:35:01.137Z,0
2018-12-16T01:35:41.465Z,0
2018-12-16T01:36:22.106Z,0
2018-12-16T01:37:02.445Z,0
2018-12-16T01:37:43.070Z,0
2018-12-16T01:38:23.408Z,0
2018-12-16T01:39:03.907Z,0
2018-12-16T01:39:44.322Z,0
2018-12-16T01:40:24.711Z,0
2018-12-16T01:41:05.170Z,0
2018-12-16T01:41:45.572Z,0
2018-12-16T01:42:26.975Z,0
2018-12-16T01:43:07.348Z,0
2018-12-16T01:43:47.766Z,0
2018-12-16T01:44:28.151Z,0
2018-12-16T01:45:08.568Z,0
2018-12-16T01:45:49.228Z,0
2018-12-16T01:46:29.605Z,0
2018-12-16T01:47:10.025Z,0
2018-12-16T01:47:50.332Z,0
2018-12-16T01:48:30.883Z,0
2018-12-16T01:49:11.253Z,0
2018-12-16T01:49:51.644Z,0
2018-12-16T01:50:32.064Z,0
2018-12-16T01:51:12.499Z,0
2018-12-16T01:51:52.846Z,0
2018-12-16T01:52:33.270Z,0
2018-12-16T01:53:13.626Z,0
2018-12-16T01:53:54.060Z,0
2018-12-16T01:54:34.505Z,0
2018-12-16T01:55:14.863Z,0
2018-12-16T01:55:55.273Z,0
2018-12-16T01:56:35.844Z,0
2018-12-16T01:57:16.062Z,0
2018-12-16T01:57:56.413Z,0
2018-12-16T01:58:37.220Z,0
2018-12-16T01:59:17.663Z,0
2018-12-16T01:59:58.039Z,0
2018-12-16T02:00:38.633Z,0
2018-12-16T02:01:19.202Z,0
2018-12-16T02:02:00.422Z,0
2018-12-16T02:02:40.817Z,0
2018-12-16T02:03:21.257Z,0
2018-12-16T02:04:01.559Z,0
2018-12-16T02:04:41.978Z,0
2018-12-16T02:05:22.310Z,0
2018-12-16T02:06:02.637Z,0
2018-12-16T02:06:43.078Z,0
2018-12-16T02:07:23.426Z,0
2018-12-16T02:08:03.898Z,0
2018-12-16T02:08:44.374Z,0
2018-12-16T02:09:24.663Z,0
2018-12-16T02:10:05.156Z,0
2018-12-16T02:10:45.468Z,0
2018-12-16T02:11:25.849Z,0
2018-12-16T02:12:06.402Z,0
2018-12-16T02:12:46.747Z,0
2018-12-16T02:13:27.094Z,0
2018-12-16T02:14:07.513Z,0
2018-12-16T02:14:47.886Z,0
2018-12-16T02:15:28.309Z,0
2018-12-16T02:16:08.788Z,0
2018-12-16T02:16:49.102Z,0
2018-12-16T02:17:29.484Z,0
2018-12-16T02:18:09.824Z,0
2018-12-16T02:18:50.257Z,0
2018-12-16T02:19:30.618Z,0
2018-12-16T02:20:11.001Z,0
2018-12-16T02:20:51.421Z,0
2018-12-16T02:21:31.907Z,0
2018-12-16T02:22:12.227Z,0
2018-12-16T02:22:56.748Z,0
2018-12-16T02:23:33.008Z,0
2018-12-16T02:24:13.440Z,0
2018-12-16T02:24:53.863Z,0
2018-12-16T02:25:34.229Z,0
2018-12-16T02:26:14.566Z,0
2018-12-16T02:26:54.964Z,0
2018-12-16T02:27:35.373Z,0
2018-12-16T02:28:15.806Z,0
2018-12-16T02:28:56.177Z,0
2018-12-16T02:29:36.609Z,0
2018-12-16T02:30:17.352Z,0
2018-12-16T02:30:57.679Z,0
2018-12-16T02:31:38.253Z,0
2018-12-16T02:32:18.524Z,0
2018-12-16T02:32:58.968Z,0
2018-12-16T02:33:39.266Z,0
2018-12-16T02:34:19.806Z,0
2018-12-16T02:35:00.967Z,0
2018-12-16T02:35:42.940Z,0
2018-12-16T02:36:23.403Z,0
2018-12-16T02:37:03.742Z,0
2018-12-16T02:37:44.269Z,0
2018-12-16T02:38:25.210Z,0
2018-12-16T02:39:05.607Z,0
2018-12-16T02:39:46.013Z,0
2018-12-16T02:40:26.389Z,0
2018-12-16T02:41:06.717Z,0
2018-12-16T02:41:47.219Z,0
2018-12-16T02:42:27.624Z,0
2018-12-16T02:43:08.071Z,0
2018-12-16T02:43:48.534Z,0
2018-12-16T02:44:28.969Z,0
2018-12-16T02:45:09.305Z,0
2018-12-16T02:45:50.028Z,0
2018-12-16T02:46:30.251Z,0
2018-12-16T02:47:10.849Z,0
2018-12-16T02:47:52.035Z,0
2018-12-16T02:48:32.428Z,0
2018-12-16T02:49:12.845Z,0
2018-12-16T02:49:53.137Z,0
2018-12-16T02:50:33.606Z,0
2018-12-16T02:51:13.943Z,0
2018-12-16T02:51:54.447Z,0
2018-12-16T02:52:34.899Z,0
2018-12-16T02:53:15.300Z,0
2018-12-16T02:53:56.197Z,0
2018-12-16T02:54:36.839Z,0
2018-12-16T02:55:17.669Z,0
2018-12-16T02:55:58.236Z,0
2018-12-16T02:56:39.568Z,0
2018-12-16T02:57:20.332Z,0
2018-12-16T02:58:00.941Z,0
2018-12-16T02:58:42.040Z,0
2018-12-16T02:59:23.108Z,0
2018-12-16T03:00:03.879Z,0
2018-12-16T03:00:45.623Z,0
2018-12-16T03:01:26.169Z,0
2018-12-16T03:02:07.090Z,0
2018-12-16T03:02:47.877Z,0
2018-12-16T03:03:28.408Z,0
2018-12-16T03:04:08.897Z,0
2018-12-16T03:04:49.709Z,0
2018-12-16T03:05:30.154Z,0
2018-12-16T03:06:10.548Z,0
2018-12-16T03:06:51.229Z,0
2018-12-16T03:07:31.701Z,0
2018-12-16T03:08:12.065Z,0
2018-12-16T03:08:52.649Z,0
2018-12-16T03:09:33.933Z,0
2018-12-16T03:10:14.452Z,0
2018-12-16T03:10:55.166Z,0
2018-12-16T03:11:35.563Z,0
2018-12-16T03:12:16.167Z,0
2018-12-16T03:12:56.851Z,0
2018-12-16T03:13:37.638Z,0
2018-12-16T03:14:18.608Z,0
2018-12-16T03:14:59.856Z,0
2018-12-16T03:15:40.629Z,0
2018-12-16T03:16:21.244Z,0
2018-12-16T03:17:02.726Z,0
2018-12-16T03:17:43.249Z,0
2018-12-16T03:18:24.726Z,0
2018-12-16T03:19:06.174Z,0
2018-12-16T03:19:46.718Z,0
2018-12-16T03:20:27.359Z,0
2018-12-16T03:21:07.823Z,0
2018-12-16T03:21:48.573Z,0
2018-12-16T03:22:29.315Z,0
2018-12-16T03:23:12.409Z,0
2018-12-16T03:23:51.190Z,0
2018-12-16T03:24:32.150Z,0
2018-12-16T03:25:12.545Z,0
2018-12-16T03:25:53.241Z,0
2018-12-16T03:26:35.982Z,0
2018-12-16T03:27:14.977Z,0
2018-12-16T03:27:55.698Z,0
2018-12-16T03:28:36.777Z,0
2018-12-16T03:29:17.662Z,0
2018-12-16T03:29:58.342Z,0
2018-12-16T03:30:39.259Z,0
2018-12-16T03:31:19.997Z,0
2018-12-16T03:32:00.466Z,0
2018-12-16T03:32:41.049Z,0
2018-12-16T03:33:21.655Z,0
2018-12-16T03:34:02.328Z,0
2018-12-16T03:34:43.431Z,0
2018-12-16T03:35:24.691Z,0
2018-12-16T03:36:05.708Z,0
2018-12-16T03:36:46.418Z,0
2018-12-16T03:37:27.179Z,0
2018-12-16T03:38:08.935Z,0
2018-12-16T03:38:49.779Z,0
2018-12-16T03:39:30.254Z,0
2018-12-16T03:40:11.178Z,0
2018-12-16T03:40:52.248Z,0
2018-12-16T03:41:32.739Z,0
2018-12-16T03:42:13.594Z,0
2018-12-16T03:42:54.327Z,0
2018-12-16T03:43:35.066Z,0
2018-12-16T03:44:15.695Z,0
2018-12-16T03:44:56.238Z,0
2018-12-16T03:45:37.867Z,0
2018-12-16T03:46:18.346Z,0
2018-12-16T03:46:58.735Z,0
2018-12-16T03:47:39.135Z,0
2018-12-16T03:48:19.550Z,0
2018-12-16T03:49:00.133Z,0
2018-12-16T03:49:40.487Z,0
2018-12-16T03:50:20.845Z,0
2018-12-16T03:51:01.277Z,0
2018-12-16T03:51:41.614Z,0
2018-12-16T03:52:22.054Z,0
2018-12-16T03:53:02.588Z,0
2018-12-16T03:53:42.924Z,0
2018-12-16T03:54:23.227Z,0
2018-12-16T03:55:03.623Z,0
2018-12-16T03:55:43.957Z,0
2018-12-16T03:56:24.444Z,0
2018-12-16T03:57:05.035Z,0
2018-12-16T03:57:45.373Z,0
2018-12-16T03:58:25.705Z,0
2018-12-16T03:59:06.876Z,0
2018-12-16T03:59:47.226Z,0
2018-12-16T04:00:27.685Z,0
2018-12-16T04:01:08.209Z,0
2018-12-16T04:01:48.490Z,0
2018-12-16T04:02:28.961Z,0
2018-12-16T04:03:09.245Z,0
2018-12-16T04:03:49.615Z,0
2018-12-16T04:04:30.164Z,0
2018-12-16T04:05:10.506Z,0
2018-12-16T04:05:50.973Z,0
2018-12-16T04:06:31.577Z,0
2018-12-16T04:07:11.859Z,0
2018-12-16T04:07:52.189Z,0
2018-12-16T04:08:32.874Z,0
2018-12-16T04:09:13.356Z,0
2018-12-16T04:09:53.674Z,0
2018-12-16T04:10:34.084Z,0
2018-12-16T04:11:15.043Z,0
2018-12-16T04:11:55.369Z,0
2018-12-16T04:12:35.816Z,0
2018-12-16T04:13:16.482Z,0
2018-12-16T04:13:56.934Z,0
2018-12-16T04:14:37.403Z,0
2018-12-16T04:15:17.708Z,0
2018-12-16T04:15:58.199Z,0
2018-12-16T04:16:38.725Z,0
2018-12-16T04:17:19.416Z,0
2018-12-16T04:17:59.886Z,0
2018-12-16T04:18:40.367Z,0
2018-12-16T04:19:21.044Z,0
2018-12-16T04:20:01.938Z,0
2018-12-16T04:20:43.474Z,0
2018-12-16T04:21:23.972Z,0
2018-12-16T04:22:04.370Z,0
2018-12-16T04:22:44.826Z,0
2018-12-16T04:23:27.496Z,0
2018-12-16T04:24:06.164Z,0
2018-12-16T04:24:46.563Z,0
2018-12-16T04:25:27.066Z,0
2018-12-16T04:26:07.426Z,0
2018-12-16T04:26:47.925Z,0
2018-12-16T04:27:28.250Z,0
2018-12-16T05:06:56.440Z,0
2018-12-16T05:07:36.776Z,0
2018-12-16T05:08:17.158Z,0
2018-12-16T05:08:57.605Z,0
2018-12-16T05:11:41.929Z,0
2018-12-16T05:12:34.391Z,0
2018-12-16T05:13:26.906Z,0
2018-12-16T05:14:19.263Z,0
2018-12-16T05:15:11.213Z,0
2018-12-16T05:16:03.445Z,0
2018-12-16T05:16:56.639Z,0
2018-12-16T05:17:48.986Z,0
2018-12-16T05:18:41.484Z,0
2018-12-16T05:19:33.298Z,0
2018-12-16T05:20:26.077Z,0
2018-12-16T05:21:18.362Z,0
2018-12-16T05:22:10.539Z,0
2018-12-16T05:23:03.023Z,0
2018-12-16T05:23:55.333Z,0
2018-12-16T05:24:48.104Z,0
2018-12-16T05:25:39.863Z,0
2018-12-16T05:26:32.318Z,0
2018-12-16T05:27:24.654Z,0
2018-12-16T05:28:17.491Z,0
2018-12-16T05:29:09.868Z,0
2018-12-16T05:30:02.620Z,0
2018-12-16T05:30:54.745Z,0
2018-12-16T05:31:47.512Z,0
2018-12-16T05:32:39.912Z,0
2018-12-16T05:33:32.561Z,0
2018-12-16T05:34:24.896Z,0
2018-12-16T05:35:17.868Z,0
2018-12-16T05:36:10.367Z,0
2018-12-16T05:37:02.533Z,0
2018-12-16T05:37:54.955Z,0
2018-12-16T05:38:47.373Z,0
2018-12-16T05:39:39.822Z,0
2018-12-16T05:40:31.750Z,0
2018-12-16T05:41:23.753Z,0
2018-12-16T05:42:15.837Z,0
2018-12-16T05:43:07.823Z,0
2018-12-16T05:44:00.452Z,0
2018-12-16T05:44:52.284Z,0
2018-12-16T05:45:39.969Z,0
2018-12-16T05:46:20.083Z,0
2018-12-16T05:47:00.444Z,0
2018-12-16T05:47:40.817Z,0
2018-12-16T05:48:21.171Z,0
2018-12-16T05:49:01.806Z,0
2018-12-16T05:49:42.141Z,0
2018-12-16T05:50:22.539Z,0
2018-12-16T05:51:02.911Z,0
2018-12-16T05:51:43.419Z,0
2018-12-16T05:52:24.179Z,0
2018-12-16T05:53:06.584Z,0
2018-12-16T05:53:48.634Z,0
2018-12-16T05:54:27.879Z,0
2018-12-16T05:55:08.519Z,0
2018-12-16T05:55:49.185Z,0
2018-12-16T05:56:30.027Z,0
2018-12-16T05:57:10.970Z,0
2018-12-16T05:57:51.688Z,0
2018-12-16T05:58:32.425Z,0
2018-12-16T05:59:12.818Z,0
2018-12-16T05:59:53.207Z,0
2018-12-16T06:00:33.516Z,0
2018-12-16T06:01:13.980Z,0
2018-12-16T06:01:55.418Z,0
2018-12-16T06:02:35.743Z,0
2018-12-16T06:03:16.668Z,0
2018-12-16T06:03:57.170Z,0
2018-12-16T06:04:37.686Z,0
2018-12-16T06:05:17.955Z,0
2018-12-16T06:05:58.319Z,0
2018-12-16T06:06:39.094Z,0
2018-12-16T06:07:19.775Z,0
2018-12-16T06:08:00.814Z,0
2018-12-16T06:08:41.006Z,0
2018-12-16T06:09:21.576Z,0
2018-12-16T06:10:02.003Z,0
2018-12-16T06:10:42.487Z,0
2018-12-16T06:11:22.905Z,0
2018-12-16T06:12:03.762Z,0
2018-12-16T06:12:44.082Z,0
2018-12-16T06:13:25.065Z,0
2018-12-16T06:14:05.689Z,0
2018-12-16T06:14:46.000Z,0
2018-12-16T06:15:26.430Z,0
2018-12-16T06:16:07.097Z,0
2018-12-16T06:16:47.616Z,0
2018-12-16T06:17:28.004Z,0
2018-12-16T06:18:08.922Z,0
2018-12-16T06:18:49.368Z,0
2018-12-16T06:19:29.777Z,0
2018-12-16T06:20:10.582Z,0
2018-12-16T06:20:51.476Z,0
2018-12-16T06:21:32.459Z,0
2018-12-16T06:22:12.928Z,0
2018-12-16T06:22:53.427Z,0
2018-12-16T06:23:33.974Z,0
2018-12-16T06:24:14.402Z,0
2018-12-16T06:24:54.946Z,0
2018-12-16T06:25:37.292Z,0
2018-12-16T06:26:17.937Z,0
2018-12-16T06:26:58.402Z,0
2018-12-16T06:27:39.002Z,0
2018-12-16T06:28:19.293Z,0
2018-12-16T06:29:00.100Z,0
2018-12-16T06:29:40.659Z,0
2018-12-16T06:30:21.195Z,0
2018-12-16T06:31:02.123Z,0
2018-12-16T06:31:43.418Z,0
2018-12-16T06:32:24.170Z,0
2018-12-16T06:33:05.040Z,0
2018-12-16T06:33:46.735Z,0
2018-12-16T06:34:27.817Z,0
2018-12-16T06:35:08.251Z,0
2018-12-16T06:35:59.149Z,0
2018-12-16T06:36:39.795Z,0
2018-12-16T06:39:17.814Z,0
2018-12-16T06:39:58.073Z,0
2018-12-16T06:40:38.504Z,0
2018-12-16T06:41:18.864Z,0
2018-12-16T06:41:59.267Z,0
2018-12-16T06:42:39.625Z,0
2018-12-16T06:43:20.016Z,0
2018-12-16T06:44:00.400Z,0
2018-12-16T06:44:41.006Z,0
2018-12-16T06:45:21.245Z,0
2018-12-16T06:46:01.655Z,0
2018-12-16T06:46:42.071Z,0
2018-12-16T06:47:22.449Z,0
2018-12-16T06:48:02.821Z,0
2018-12-16T06:48:43.505Z,0
2018-12-16T06:49:23.775Z,0
2018-12-16T06:50:04.128Z,0
2018-12-16T06:50:44.531Z,0
2018-12-16T06:51:25.072Z,0
2018-12-16T06:52:05.514Z,0
2018-12-16T06:52:45.907Z,0
2018-12-16T06:53:26.301Z,0
2018-12-16T06:54:06.710Z,0
2018-12-16T06:54:47.096Z,0
2018-12-16T06:55:27.501Z,0
2018-12-16T06:56:07.892Z,0
2018-12-16T06:56:48.270Z,0
2018-12-16T06:57:28.645Z,0
2018-12-16T06:58:09.044Z,0
2018-12-16T06:58:49.451Z,0
2018-12-16T06:59:29.815Z,0
2018-12-16T07:01:27.230Z,0
2018-12-16T07:02:07.759Z,0
2018-12-16T07:02:48.047Z,0
2018-12-16T07:03:28.503Z,0
2018-12-16T07:04:08.903Z,0
2018-12-16T07:04:49.278Z,0
2018-12-16T07:05:29.666Z,0
2018-12-16T07:06:10.037Z,0
2018-12-16T07:06:50.433Z,0
2018-12-16T07:07:30.849Z,0
2018-12-16T07:08:11.302Z,0
2018-12-16T07:08:51.676Z,0
2018-12-16T07:09:32.100Z,4
2018-12-16T07:10:12.477Z,4
2018-12-16T07:10:52.849Z,4
2018-12-16T07:11:33.237Z,4
2018-12-16T07:12:13.660Z,0
2018-12-16T07:12:54.042Z,4
2018-12-16T07:13:34.415Z,4
2018-12-16T07:14:14.779Z,4
2018-12-16T07:14:55.175Z,8
2018-12-16T07:15:35.628Z,4
2018-12-16T07:16:16.039Z,4
2018-12-16T07:16:56.434Z,8
2018-12-16T07:17:36.816Z,8
2018-12-16T07:18:17.185Z,8
2018-12-16T07:18:57.594Z,8
2018-12-16T07:19:38.495Z,8
2018-12-16T07:20:18.740Z,8
2018-12-16T07:20:59.148Z,12
2018-12-16T07:21:39.496Z,8
2018-12-16T07:22:19.856Z,8
2018-12-16T07:23:00.232Z,12
2018-12-16T07:23:40.666Z,12
2018-12-16T07:24:20.998Z,12
2018-12-16T07:26:39.713Z,12
2018-12-16T07:27:19.686Z,12
2018-12-16T07:28:00.042Z,12
2018-12-16T07:28:40.417Z,16
2018-12-16T07:29:20.965Z,16
2018-12-16T07:30:01.239Z,16
2018-12-16T07:30:41.640Z,16
2018-12-16T07:33:09.350Z,16
2018-12-16T07:33:49.749Z,20
2018-12-16T07:34:30.246Z,20
2018-12-16T07:35:10.627Z,24
2018-12-16T07:35:51.063Z,24
2018-12-16T07:36:31.357Z,24
2018-12-16T07:37:18.755Z,28
2018-12-16T07:37:52.187Z,24
2018-12-16T07:38:32.557Z,28
2018-12-16T07:39:13.013Z,28
2018-12-16T07:39:53.369Z,32
2018-12-16T07:40:33.757Z,32
2018-12-16T07:41:14.117Z,32
2018-12-16T07:41:54.522Z,36
2018-12-16T07:42:34.910Z,36
2018-12-16T07:43:15.272Z,36
2018-12-16T07:43:55.703Z,36
2018-12-16T07:44:36.077Z,40
2018-12-16T07:45:16.499Z,40
2018-12-16T07:45:56.878Z,44
2018-12-16T07:46:37.285Z,44
2018-12-16T07:47:17.684Z,44
2018-12-16T07:47:58.063Z,48
2018-12-16T07:48:38.483Z,48
2018-12-16T07:49:18.871Z,52
2018-12-16T07:49:59.275Z,52
2018-12-16T07:50:39.744Z,52
2018-12-16T07:51:20.117Z,52
2018-12-16T07:52:00.514Z,56
2018-12-16T07:52:40.910Z,56
2018-12-16T07:53:21.270Z,56
2018-12-16T07:54:01.679Z,56
2018-12-16T07:54:42.385Z,60
2018-12-16T07:55:22.793Z,60
2018-12-16T07:56:03.215Z,64
2018-12-16T07:56:43.635Z,64
2018-12-16T07:57:24.017Z,68
2018-12-16T07:58:04.421Z,68
2018-12-16T07:58:44.812Z,72
2018-12-16T07:59:25.221Z,80
2018-12-16T08:00:05.588Z,80
2018-12-16T08:00:45.977Z,84
2018-12-16T08:01:26.338Z,88
2018-12-16T08:02:06.717Z,88
2018-12-16T08:02:47.070Z,96
2018-12-16T08:03:27.465Z,96
2018-12-16T08:04:07.832Z,96
2018-12-16T08:04:48.241Z,100
2018-12-16T08:05:28.588Z,96
2018-12-16T08:06:09.061Z,100
2018-12-16T08:06:49.424Z,100
2018-12-16T08:07:29.818Z,100
2018-12-16T08:08:10.185Z,96
2018-12-16T08:08:50.574Z,100
2018-12-16T08:09:30.957Z,96
2018-12-16T08:10:11.345Z,100
2018-12-16T08:10:51.850Z,100
2018-12-16T08:11:32.228Z,100
2018-12-16T08:12:12.650Z,104
2018-12-16T08:12:53.007Z,104
2018-12-16T08:13:33.398Z,108
2018-12-16T08:14:13.804Z,104
2018-12-16T08:14:54.241Z,108
2018-12-16T08:15:34.631Z,112
2018-12-16T08:16:15.002Z,112
2018-12-16T08:16:55.379Z,112
2018-12-16T08:17:35.775Z,116
2018-12-16T08:18:17.118Z,116
2018-12-16T08:18:56.573Z,116
2018-12-16T08:19:37.002Z,120
2018-12-16T08:20:17.409Z,124
2018-12-16T08:20:57.749Z,128
2018-12-16T08:21:38.169Z,136
2018-12-16T08:22:18.549Z,140
2018-12-16T08:22:58.993Z,144
2018-12-16T08:23:39.314Z,148
2018-12-16T08:24:23.023Z,148
2018-12-16T08:25:00.152Z,152
2018-12-16T08:25:40.483Z,148
2018-12-16T08:26:20.864Z,152
2018-12-16T08:27:01.237Z,152
2018-12-16T08:27:41.640Z,152
2018-12-16T08:28:22.066Z,152
2018-12-16T08:29:02.525Z,152
2018-12-16T08:29:42.820Z,152
2018-12-16T08:30:23.207Z,156
2018-12-16T08:31:03.648Z,160
2018-12-16T08:31:44.022Z,164
2018-12-16T08:32:24.421Z,164
2018-12-16T08:33:04.807Z,168
2018-12-16T08:33:45.183Z,172
2018-12-16T08:34:25.613Z,176
2018-12-16T08:35:05.999Z,176
2018-12-16T08:35:46.363Z,180
2018-12-16T08:36:26.785Z,184
2018-12-16T08:37:07.135Z,184
2018-12-16T08:37:47.527Z,188
2018-12-16T08:38:27.928Z,192
2018-12-16T08:39:08.291Z,196
2018-12-16T08:39:48.688Z,196
2018-12-16T08:40:29.099Z,204
2018-12-16T08:41:09.479Z,208
2018-12-16T08:41:49.860Z,208
2018-12-16T08:42:30.243Z,216
2018-12-16T08:43:10.617Z,224
2018-12-16T08:43:51.015Z,228
2018-12-16T08:44:31.405Z,232
2018-12-16T08:45:11.806Z,236
2018-12-16T08:45:52.167Z,240
2018-12-16T08:46:32.554Z,244
2018-12-16T08:47:12.969Z,240
2018-12-16T08:47:53.341Z,240
2018-12-16T08:48:33.779Z,240
2018-12-16T08:49:14.144Z,240
2018-12-16T08:49:54.507Z,244
2018-12-16T08:50:34.891Z,244
2018-12-16T08:51:15.259Z,248
2018-12-16T08:51:55.646Z,256
2018-12-16T08:52:36.074Z,264
2018-12-16T08:53:16.449Z,272
2018-12-16T08:53:56.883Z,280
2018-12-16T08:54:37.277Z,292
2018-12-16T08:55:17.644Z,300
2018-12-16T08:55:58.071Z,308
2018-12-16T08:56:38.424Z,312
2018-12-16T08:57:18.813Z,324
2018-12-16T08:57:59.203Z,336
2018-12-16T08:58:39.585Z,348
2018-12-16T08:59:20.003Z,352
2018-12-16T09:00:00.422Z,356
2018-12-16T09:02:28.015Z,376
2018-12-16T09:03:08.451Z,384
2018-12-16T09:03:48.822Z,392
2018-12-16T09:04:29.199Z,400
2018-12-16T09:05:09.593Z,408
2018-12-16T09:05:49.943Z,416
2018-12-16T09:06:30.354Z,420
2018-12-16T09:07:10.751Z,424
2018-12-16T09:07:51.109Z,436
2018-12-16T09:08:31.533Z,444
2018-12-16T09:09:11.897Z,460
2018-12-16T09:09:52.242Z,476
2018-12-16T09:10:34.194Z,488
2018-12-16T09:11:13.084Z,492
2018-12-16T09:11:53.462Z,492
2018-12-16T09:12:33.821Z,488
2018-12-16T09:13:14.219Z,480
2018-12-16T09:13:54.609Z,480
2018-12-16T09:14:34.975Z,480
2018-12-16T09:15:15.344Z,488
2018-12-16T09:15:55.738Z,496
2018-12-16T09:16:36.172Z,504
2018-12-16T09:17:16.565Z,512
2018-12-16T09:17:56.925Z,520
2018-12-16T09:19:55.494Z,540
2018-12-16T09:20:36.315Z,540
2018-12-16T09:21:17.572Z,540
2018-12-16T09:21:59.703Z,544
2018-12-16T09:22:40.103Z,556
2018-12-16T09:23:20.473Z,576
2018-12-16T09:24:01.761Z,592
2018-12-16T09:24:42.217Z,608
2018-12-16T09:26:56.711Z,604
2018-12-16T09:27:37.112Z,600
2018-12-16T09:28:17.536Z,608
2018-12-16T09:28:57.968Z,628
2018-12-16T09:29:38.388Z,644
2018-12-16T09:30:18.755Z,652
2018-12-16T09:30:59.153Z,628
2018-12-16T09:31:39.577Z,600
2018-12-16T09:32:19.939Z,564
2018-12-16T09:33:00.318Z,552
2018-12-16T09:33:40.713Z,576
2018-12-16T09:34:21.088Z,612
2018-12-16T09:35:01.505Z,652
2018-12-16T09:35:41.871Z,684
2018-12-16T09:36:22.229Z,712
2018-12-16T09:37:02.602Z,728
2018-12-16T09:37:43.019Z,740
2018-12-16T09:38:23.416Z,732
2018-12-16T09:39:03.826Z,708
2018-12-16T09:39:44.211Z,700
2018-12-16T09:40:24.588Z,712
2018-12-16T09:41:04.976Z,732
2018-12-16T09:41:45.412Z,756
2018-12-16T09:42:25.807Z,752
2018-12-16T09:43:06.173Z,744
2018-12-16T09:43:46.559Z,728
2018-12-16T09:44:26.947Z,696
2018-12-16T09:45:07.323Z,676
2018-12-16T09:47:04.834Z,596
2018-12-16T09:47:45.285Z,604
2018-12-16T09:48:25.631Z,628
2018-12-16T09:49:06.037Z,652
2018-12-16T09:49:46.414Z,664
2018-12-16T09:50:26.827Z,652
2018-12-16T09:51:07.229Z,652
2018-12-16T09:51:47.583Z,656
2018-12-16T09:52:27.979Z,660
2018-12-16T09:53:08.399Z,656
2018-12-16T09:53:48.807Z,664
2018-12-16T09:54:29.167Z,680
2018-12-16T09:55:09.551Z,708
2018-12-16T09:55:49.946Z,724
2018-12-16T09:56:30.329Z,728
2018-12-16T09:57:10.721Z,744
2018-12-16T09:57:51.086Z,764
2018-12-16T09:58:31.495Z,768
2018-12-16T09:59:11.888Z,760
2018-12-16T09:59:52.271Z,752
2018-12-16T10:00:32.689Z,728
2018-12-16T10:01:13.040Z,676
2018-12-16T10:01:53.426Z,660
2018-12-16T10:02:33.813Z,684
2018-12-16T10:03:14.173Z,748
2018-12-16T10:03:54.577Z,796
2018-12-16T10:04:34.982Z,800
2018-12-16T10:05:15.370Z,764
2018-12-16T10:05:55.759Z,728
2018-12-16T10:08:13.953Z,688
2018-12-16T10:08:54.405Z,708
2018-12-16T10:09:34.779Z,720
2018-12-16T10:10:15.208Z,732
2018-12-16T10:10:55.560Z,756
2018-12-16T10:11:35.991Z,784
2018-12-16T10:12:16.381Z,796
2018-12-16T10:12:56.796Z,792
2018-12-16T10:13:37.196Z,768
2018-12-16T10:14:17.715Z,728
2018-12-16T10:14:57.990Z,680
2018-12-16T10:15:38.385Z,652
2018-12-16T10:16:18.758Z,612
2018-12-16T10:16:59.170Z,556
2018-12-16T10:17:39.557Z,476
2018-12-16T10:18:20.236Z,412
2018-12-16T10:19:00.660Z,380
2018-12-16T10:19:42.038Z,372
2018-12-16T10:20:22.404Z,364
2018-12-16T10:21:02.821Z,356
2018-12-16T10:21:43.195Z,332
2018-12-16T10:22:23.584Z,332
2018-12-16T10:23:03.995Z,352
2018-12-16T10:23:44.434Z,420
2018-12-16T10:24:24.781Z,512
2018-12-16T10:25:05.171Z,592
2018-12-16T10:25:45.584Z,644
2018-12-16T10:26:25.979Z,692
2018-12-16T10:27:06.362Z,732
2018-12-16T10:27:46.741Z,756
2018-12-16T10:28:27.139Z,748
2018-12-16T10:29:07.489Z,724
2018-12-16T11:07:31.404Z,456
2018-12-16T11:08:11.826Z,436
2018-12-16T11:08:52.248Z,420
2018-12-16T11:09:32.618Z,412
2018-12-16T11:12:01.475Z,424
2018-12-16T11:12:41.755Z,428
2018-12-16T11:13:22.161Z,428
2018-12-16T11:14:02.490Z,428
2018-12-16T11:14:42.907Z,424
2018-12-16T11:15:23.279Z,436
2018-12-16T11:16:03.692Z,456
2018-12-16T11:16:44.072Z,468
2018-12-16T11:17:24.422Z,484
2018-12-16T11:18:04.881Z,512
2018-12-16T11:18:45.213Z,552
2018-12-16T11:19:25.547Z,584
2018-12-16T11:20:05.973Z,596
2018-12-16T11:20:46.343Z,592
2018-12-16T11:21:26.716Z,588
2018-12-16T11:22:07.130Z,576
2018-12-16T11:22:47.506Z,568
2018-12-16T11:23:27.922Z,548
2018-12-16T11:24:08.346Z,508
2018-12-16T11:24:48.735Z,464
2018-12-16T11:25:29.113Z,432
2018-12-16T11:26:09.531Z,408
2018-12-16T11:26:49.923Z,404
2018-12-16T11:27:30.330Z,400
2018-12-16T11:28:10.749Z,404
2018-12-16T11:28:51.168Z,416
2018-12-16T11:29:31.578Z,436
2018-12-16T11:30:12.015Z,456
2018-12-16T11:30:52.392Z,476
2018-12-16T11:31:32.812Z,500
2018-12-16T11:32:13.273Z,500
2018-12-16T11:32:53.620Z,484
2018-12-16T11:33:34.038Z,472
2018-12-16T11:34:14.494Z,468
2018-12-16T11:34:54.870Z,476
2018-12-16T11:35:35.290Z,488